createdAt,value
2023-03-05T00:00:20.695Z,24.75
2023-03-05T00:00:50.830Z,24.77
2023-03-05T00:01:20.743Z,24.75
2023-03-05T00:01:50.716Z,24.75
2023-03-05T00:02:20.875Z,24.75
2023-03-05T00:02:50.940Z,24.77
2023-03-05T00:03:21.053Z,24.75
2023-03-05T00:03:51.091Z,24.77
2023-03-05T00:04:21.075Z,24.74
2023-03-05T00:04:51.065Z,24.75
2023-03-05T00:05:21.187Z,24.78
2023-03-05T00:05:51.178Z,24.74
2023-03-05T00:06:21.169Z,24.77
2023-03-05T00:06:51.279Z,24.75
2023-03-05T00:07:21.395Z,24.74
2023-03-05T00:07:51.394Z,24.78
2023-03-05T00:08:21.512Z,24.74
2023-03-05T00:08:51.627Z,24.72
2023-03-05T00:09:21.751Z,24.77
2023-03-05T00:09:51.741Z,24.77
2023-03-05T00:10:21.855Z,24.75
2023-03-05T00:10:51.859Z,24.74
2023-03-05T00:11:21.988Z,24.75
2023-03-05T00:11:52.088Z,24.74
2023-03-05T00:12:22.230Z,24.75
2023-03-05T00:12:52.328Z,24.75
2023-03-05T00:13:22.326Z,24.75
2023-03-05T00:13:52.313Z,24.75
2023-03-05T00:14:22.444Z,24.77
2023-03-05T00:14:52.549Z,24.72
2023-03-05T00:15:22.669Z,24.74
2023-03-05T00:15:52.702Z,24.75
2023-03-05T00:16:22.742Z,24.72
2023-03-05T00:16:52.700Z,24.75
2023-03-05T00:17:22.698Z,24.75
2023-03-05T00:17:52.819Z,24.75
2023-03-05T00:18:22.926Z,24.74
2023-03-05T00:18:52.923Z,24.75
2023-03-05T00:19:22.927Z,24.77
2023-03-05T00:19:53.020Z,24.74
2023-03-05T00:20:23.100Z,24.74
2023-03-05T00:20:53.177Z,24.74
2023-03-05T00:21:23.263Z,24.75
2023-03-05T00:21:53.345Z,24.75
2023-03-05T00:22:23.428Z,24.75
2023-03-05T00:22:53.508Z,24.75
2023-03-05T00:23:23.584Z,24.75
2023-03-05T00:23:53.667Z,24.74
2023-03-05T00:24:23.751Z,24.74
2023-03-05T00:24:53.852Z,24.74
2023-03-05T00:25:23.922Z,24.74
2023-03-05T00:25:54.006Z,24.74
2023-03-05T00:26:24.087Z,24.75
2023-03-05T00:26:54.156Z,24.75
2023-03-05T00:27:24.239Z,24.72
2023-03-05T00:27:54.338Z,24.75
2023-03-05T00:28:24.405Z,24.74
2023-03-05T00:28:54.482Z,24.77
2023-03-05T00:29:24.563Z,24.74
2023-03-05T00:29:54.675Z,24.72
2023-03-05T00:30:24.802Z,24.71
2023-03-05T00:30:54.887Z,24.75
2023-03-05T00:31:24.967Z,24.75
2023-03-05T00:31:54.953Z,24.74
2023-03-05T00:32:24.971Z,24.74
2023-03-05T00:32:54.953Z,24.74
2023-03-05T00:33:25.079Z,24.74
2023-03-05T00:33:55.187Z,24.72
2023-03-05T00:34:25.196Z,24.72
2023-03-05T00:34:55.191Z,24.75
2023-03-05T00:35:25.341Z,24.74
2023-03-05T00:35:55.415Z,24.74
2023-03-05T00:36:25.423Z,24.74
2023-03-05T00:36:55.535Z,24.75
2023-03-05T00:37:25.662Z,24.72
2023-03-05T00:37:55.660Z,24.74
2023-03-05T00:38:25.771Z,24.71
2023-03-05T00:38:55.768Z,24.74
2023-03-05T00:39:25.889Z,24.74
2023-03-05T00:39:55.881Z,24.75
2023-03-05T00:40:25.959Z,24.75
2023-03-05T00:40:56.003Z,24.72
2023-03-05T00:41:25.996Z,24.74
2023-03-05T00:41:55.987Z,24.77
2023-03-05T00:42:25.982Z,24.74
2023-03-05T00:42:56.006Z,24.74
2023-03-05T00:43:26.114Z,24.72
2023-03-05T00:43:56.110Z,24.74
2023-03-05T00:44:26.225Z,24.72
2023-03-05T00:44:56.337Z,24.77
2023-03-05T00:45:26.459Z,24.74
2023-03-05T00:45:56.590Z,24.74
2023-03-05T00:46:26.684Z,24.74
2023-03-05T00:46:56.674Z,24.74
2023-03-05T00:47:26.797Z,24.75
2023-03-05T00:47:56.912Z,24.72
2023-03-05T00:48:27.033Z,24.74
2023-03-05T00:48:57.025Z,24.72
2023-03-05T00:49:27.146Z,24.74
2023-03-05T00:49:57.255Z,24.74
2023-03-05T00:50:27.258Z,24.72
2023-03-05T00:50:57.263Z,24.74
2023-03-05T00:51:27.392Z,24.72
2023-03-05T00:51:57.497Z,24.74
2023-03-05T00:52:27.517Z,24.74
2023-03-05T00:52:57.626Z,24.72
2023-03-05T00:53:27.744Z,24.75
2023-03-05T00:53:57.744Z,24.72
2023-03-05T00:54:27.866Z,24.74
2023-03-05T00:54:57.975Z,24.72
2023-03-05T00:55:28.091Z,24.72
2023-03-05T00:55:58.213Z,24.74
2023-03-05T00:56:28.203Z,24.74
2023-03-05T00:56:58.202Z,24.72
2023-03-05T00:57:28.316Z,24.72
2023-03-05T00:57:58.465Z,24.74
2023-03-05T00:58:28.435Z,24.74
2023-03-05T00:58:58.442Z,24.72
2023-03-05T00:59:28.438Z,24.74
2023-03-05T00:59:58.554Z,24.71
2023-03-05T01:00:28.549Z,24.72
2023-03-05T01:00:58.667Z,24.72
2023-03-05T01:01:28.730Z,24.72
2023-03-05T01:01:58.848Z,24.72
2023-03-05T01:02:28.848Z,24.71
2023-03-05T01:02:58.900Z,24.71
2023-03-05T01:03:28.953Z,24.72
2023-03-05T01:03:58.946Z,24.72
2023-03-05T01:04:29.063Z,24.71
2023-03-05T01:04:59.106Z,24.72
2023-03-05T01:05:29.175Z,24.71
2023-03-05T01:05:59.174Z,24.72
2023-03-05T01:06:29.161Z,24.71
2023-03-05T01:06:59.158Z,24.72
2023-03-05T01:07:29.275Z,24.72
2023-03-05T01:07:59.269Z,24.71
2023-03-05T01:08:29.274Z,24.72
2023-03-05T01:08:59.386Z,24.71
2023-03-05T01:09:29.506Z,24.71
2023-03-05T01:09:59.499Z,24.71
2023-03-05T01:10:29.616Z,24.72
2023-03-05T01:10:59.731Z,24.71
2023-03-05T01:11:29.737Z,24.72
2023-03-05T01:11:59.843Z,24.71
2023-03-05T01:12:29.959Z,24.70
2023-03-05T01:12:59.987Z,24.71
2023-03-05T01:13:29.954Z,24.72
2023-03-05T01:14:00.120Z,24.71
2023-03-05T01:14:30.083Z,24.71
2023-03-05T01:15:00.095Z,24.71
2023-03-05T01:15:30.193Z,24.71
2023-03-05T01:16:00.243Z,24.71
2023-03-05T01:16:30.264Z,24.71
2023-03-05T01:17:00.280Z,24.70
2023-03-05T01:17:30.398Z,24.72
2023-03-05T01:18:00.392Z,24.71
2023-03-05T01:18:30.509Z,24.72
2023-03-05T01:19:00.619Z,24.72
2023-03-05T01:19:30.645Z,24.68
2023-03-05T01:20:00.707Z,24.74
2023-03-05T01:20:30.799Z,24.72
2023-03-05T01:21:00.878Z,24.74
2023-03-05T01:21:30.964Z,24.71
2023-03-05T01:22:01.046Z,24.71
2023-03-05T01:22:31.138Z,24.71
2023-03-05T01:23:01.213Z,24.68
2023-03-05T01:23:31.289Z,24.72
2023-03-05T01:24:01.366Z,24.70
2023-03-05T01:24:31.447Z,24.70
2023-03-05T01:25:01.524Z,24.71
2023-03-05T01:25:31.620Z,24.70
2023-03-05T01:26:01.694Z,24.70
2023-03-05T01:26:31.771Z,24.71
2023-03-05T01:27:01.849Z,24.70
2023-03-05T01:27:31.925Z,24.70
2023-03-05T01:28:02.019Z,24.71
2023-03-05T01:28:32.118Z,24.70
2023-03-05T01:29:02.172Z,24.68
2023-03-05T01:29:32.258Z,24.70
2023-03-05T01:30:02.366Z,24.70
2023-03-05T01:30:32.482Z,24.71
2023-03-05T01:31:02.820Z,24.68
2023-03-05T01:31:32.728Z,24.72
2023-03-05T01:32:02.789Z,24.68
2023-03-05T01:32:34.721Z,24.71
2023-03-05T01:33:02.781Z,24.70
2023-03-05T01:33:32.902Z,24.68
2023-03-05T01:34:03.011Z,24.67
2023-03-05T01:34:33.151Z,24.68
2023-03-05T01:35:03.148Z,24.68
2023-03-05T01:35:33.308Z,24.65
2023-03-05T01:36:03.302Z,24.70
2023-03-05T01:36:33.301Z,24.71
2023-03-05T01:37:03.416Z,24.70
2023-03-05T01:37:33.417Z,24.68
2023-03-05T01:38:03.528Z,24.71
2023-03-05T01:38:33.645Z,24.71
2023-03-05T01:39:03.757Z,24.68
2023-03-05T01:39:33.758Z,24.68
2023-03-05T01:40:03.882Z,24.71
2023-03-05T01:40:33.985Z,24.71
2023-03-05T01:41:03.984Z,24.68
2023-03-05T01:41:33.978Z,24.70
2023-03-05T01:42:04.100Z,24.70
2023-03-05T01:42:34.089Z,24.70
2023-03-05T01:43:04.208Z,24.71
2023-03-05T01:43:34.203Z,24.70
2023-03-05T01:44:04.345Z,24.71
2023-03-05T01:44:34.318Z,24.71
2023-03-05T01:45:04.441Z,24.68
2023-03-05T01:45:34.592Z,24.68
2023-03-05T01:46:04.701Z,24.67
2023-03-05T01:46:34.799Z,24.68
2023-03-05T01:47:04.702Z,24.68
2023-03-05T01:47:34.700Z,24.68
2023-03-05T01:48:04.700Z,24.67
2023-03-05T01:48:34.689Z,24.68
2023-03-05T01:49:04.694Z,24.67
2023-03-05T01:49:34.747Z,24.70
2023-03-05T01:50:04.867Z,24.67
2023-03-05T01:50:34.858Z,24.65
2023-03-05T01:51:04.858Z,24.67
2023-03-05T01:51:34.855Z,24.65
2023-03-05T01:52:04.970Z,24.65
2023-03-05T01:52:34.973Z,24.65
2023-03-05T01:53:05.097Z,24.68
2023-03-05T01:53:35.194Z,24.68
2023-03-05T01:54:05.311Z,24.67
2023-03-05T01:54:35.313Z,24.65
2023-03-05T01:55:05.430Z,24.65
2023-03-05T01:55:35.442Z,24.65
2023-03-05T01:56:05.426Z,24.67
2023-03-05T01:56:35.421Z,24.68
2023-03-05T01:57:05.536Z,24.68
2023-03-05T01:57:35.529Z,24.68
2023-03-05T01:58:05.651Z,24.68
2023-03-05T01:58:35.763Z,24.67
2023-03-05T01:59:05.884Z,24.65
2023-03-05T01:59:35.903Z,24.67
2023-03-05T02:00:05.998Z,24.65
2023-03-05T02:00:36.103Z,24.65
2023-03-05T02:01:06.290Z,24.65
2023-03-05T02:01:36.307Z,24.64
2023-03-05T02:02:06.426Z,24.67
2023-03-05T02:02:36.418Z,24.64
2023-03-05T02:03:06.419Z,24.67
2023-03-05T02:03:36.550Z,24.67
2023-03-05T02:04:06.705Z,24.67
2023-03-05T02:04:36.684Z,24.64
2023-03-05T02:05:06.700Z,24.62
2023-03-05T02:05:36.799Z,24.67
2023-03-05T02:06:06.923Z,24.67
2023-03-05T02:06:36.913Z,24.65
2023-03-05T02:07:07.032Z,24.67
2023-03-05T02:07:37.023Z,24.64
2023-03-05T02:08:07.137Z,24.65
2023-03-05T02:08:37.254Z,24.65
2023-03-05T02:09:07.376Z,24.67
2023-03-05T02:09:37.370Z,24.65
2023-03-05T02:10:07.494Z,24.65
2023-03-05T02:10:37.491Z,24.65
2023-03-05T02:11:07.489Z,24.67
2023-03-05T02:11:37.482Z,24.67
2023-03-05T02:12:07.600Z,24.65
2023-03-05T02:12:37.602Z,24.65
2023-03-05T02:13:07.723Z,24.65
2023-03-05T02:13:37.840Z,24.65
2023-03-05T02:14:10.020Z,24.67
2023-03-05T02:14:37.854Z,24.65
2023-03-05T02:15:07.900Z,24.67
2023-03-05T02:15:37.874Z,24.64
2023-03-05T02:16:07.917Z,24.65
2023-03-05T02:16:37.918Z,24.67
2023-03-05T02:17:08.034Z,24.64
2023-03-05T02:17:38.015Z,24.65
2023-03-05T02:18:08.142Z,24.65
2023-03-05T02:18:38.249Z,24.68
2023-03-05T02:19:08.262Z,24.64
2023-03-05T02:19:38.358Z,24.64
2023-03-05T02:20:08.443Z,24.67
2023-03-05T02:20:38.519Z,24.67
2023-03-05T02:21:08.598Z,24.67
2023-03-05T02:21:38.677Z,24.65
2023-03-05T02:22:08.763Z,24.67
2023-03-05T02:22:38.840Z,24.65
2023-03-05T02:23:08.918Z,24.67
2023-03-05T02:23:39.020Z,24.64
2023-03-05T02:24:09.097Z,24.65
2023-03-05T02:24:39.167Z,24.64
2023-03-05T02:25:09.251Z,24.65
2023-03-05T02:25:39.345Z,24.64
2023-03-05T02:26:09.430Z,24.64
2023-03-05T02:26:39.507Z,24.65
2023-03-05T02:27:09.574Z,24.67
2023-03-05T02:27:39.654Z,24.67
2023-03-05T02:28:09.745Z,24.65
2023-03-05T02:28:39.808Z,24.65
2023-03-05T02:29:09.891Z,24.64
2023-03-05T02:29:39.980Z,24.65
2023-03-05T02:30:10.119Z,24.67
2023-03-05T02:30:40.133Z,24.64
2023-03-05T02:31:10.097Z,24.67
2023-03-05T02:31:40.178Z,24.64
2023-03-05T02:32:10.378Z,24.65
2023-03-05T02:32:40.235Z,24.64
2023-03-05T02:33:10.246Z,24.65
2023-03-05T02:33:40.246Z,24.64
2023-03-05T02:34:10.241Z,24.64
2023-03-05T02:34:40.237Z,24.64
2023-03-05T02:35:10.245Z,24.65
2023-03-05T02:35:40.273Z,24.65
2023-03-05T02:36:10.253Z,24.65
2023-03-05T02:36:40.369Z,24.65
2023-03-05T02:37:10.509Z,24.64
2023-03-05T02:37:40.496Z,24.64
2023-03-05T02:38:10.616Z,24.64
2023-03-05T02:38:40.732Z,24.64
2023-03-05T02:39:10.746Z,24.62
2023-03-05T02:39:40.726Z,24.65
2023-03-05T02:40:10.845Z,24.64
2023-03-05T02:40:40.842Z,24.64
2023-03-05T02:41:10.844Z,24.64
2023-03-05T02:41:40.963Z,24.65
2023-03-05T02:42:11.075Z,24.67
2023-03-05T02:42:41.199Z,24.64
2023-03-05T02:43:50.326Z,24.60
2023-03-05T02:44:20.390Z,24.62
2023-03-05T02:44:50.469Z,24.61
2023-03-05T02:45:20.558Z,24.61
2023-03-05T02:45:50.721Z,24.62
2023-03-05T02:46:20.680Z,24.61
2023-03-05T02:46:50.832Z,24.61
2023-03-05T02:47:20.900Z,24.60
2023-03-05T02:47:50.972Z,24.60
2023-03-05T02:48:21.056Z,24.61
2023-03-05T02:48:51.148Z,24.60
2023-03-05T02:49:21.220Z,24.60
2023-03-05T02:49:51.294Z,24.58
2023-03-05T02:50:21.531Z,24.60
2023-03-05T02:50:51.364Z,24.57
2023-03-05T02:51:21.452Z,24.61
2023-03-05T02:51:51.532Z,24.60
2023-03-05T02:52:21.614Z,24.60
2023-03-05T02:52:51.693Z,24.60
2023-03-05T02:53:21.778Z,24.60
2023-03-05T02:53:51.783Z,24.60
2023-03-05T02:54:21.897Z,24.62
2023-03-05T02:54:52.027Z,24.60
2023-03-05T02:55:22.032Z,24.60
2023-03-05T02:55:52.023Z,24.60
2023-03-05T02:56:22.025Z,24.58
2023-03-05T02:56:52.163Z,24.61
2023-03-05T02:57:22.154Z,24.58
2023-03-05T02:57:52.271Z,24.60
2023-03-05T02:58:22.392Z,24.61
2023-03-05T02:58:52.511Z,24.58
2023-03-05T02:59:22.525Z,24.62
2023-03-05T02:59:52.715Z,24.60
2023-03-05T03:00:22.697Z,24.60
2023-03-05T03:00:52.784Z,24.60
2023-03-05T03:01:22.777Z,24.58
2023-03-05T03:01:52.779Z,24.60
2023-03-05T03:02:22.776Z,24.61
2023-03-05T03:02:52.899Z,24.60
2023-03-05T03:03:23.012Z,24.58
2023-03-05T03:03:53.002Z,24.61
2023-03-05T03:04:23.112Z,24.62
2023-03-05T03:04:53.108Z,24.60
2023-03-05T03:05:23.240Z,24.58
2023-03-05T03:05:53.231Z,24.60
2023-03-05T03:06:23.232Z,24.61
2023-03-05T03:06:53.225Z,24.60
2023-03-05T03:07:23.343Z,24.58
2023-03-05T03:07:53.480Z,24.61
2023-03-05T03:08:23.588Z,24.60
2023-03-05T03:08:53.577Z,24.62
2023-03-05T03:09:23.695Z,24.60
2023-03-05T03:09:53.813Z,24.60
2023-03-05T03:10:23.832Z,24.61
2023-03-05T03:10:53.814Z,24.62
2023-03-05T03:11:23.804Z,24.60
2023-03-05T03:11:53.803Z,24.61
2023-03-05T03:12:23.815Z,24.61
2023-03-05T03:12:53.789Z,24.60
2023-03-05T03:13:23.791Z,24.61
2023-03-05T03:13:53.782Z,24.61
2023-03-05T03:14:23.781Z,24.60
2023-03-05T03:14:53.773Z,24.58
2023-03-05T03:15:23.894Z,24.61
2023-03-05T03:15:53.895Z,24.60
2023-03-05T03:16:23.927Z,24.62
2023-03-05T03:16:53.942Z,24.60
2023-03-05T03:17:23.945Z,24.60
2023-03-05T03:17:53.942Z,24.62
2023-03-05T03:18:23.953Z,24.58
2023-03-05T03:18:53.937Z,24.60
2023-03-05T03:19:24.050Z,24.62
2023-03-05T03:19:54.166Z,24.58
2023-03-05T03:20:24.172Z,24.60
2023-03-05T03:20:54.163Z,24.60
2023-03-05T03:21:24.178Z,24.61
2023-03-05T03:21:54.163Z,24.60
2023-03-05T03:22:24.284Z,24.61
2023-03-05T03:22:54.285Z,24.61
2023-03-05T03:23:24.398Z,24.60
2023-03-05T03:23:54.511Z,24.60
2023-03-05T03:24:24.517Z,24.58
2023-03-05T03:24:54.512Z,24.60
2023-03-05T03:25:24.631Z,24.55
2023-03-05T03:25:54.627Z,24.60
2023-03-05T03:26:24.749Z,24.58
2023-03-05T03:26:54.742Z,24.58
2023-03-05T03:27:24.744Z,24.60
2023-03-05T03:27:54.736Z,24.58
2023-03-05T03:28:25.272Z,24.58
2023-03-05T03:28:54.738Z,24.61
2023-03-05T03:29:24.777Z,24.57
2023-03-05T03:29:54.793Z,24.60
2023-03-05T03:30:24.778Z,24.60
2023-03-05T03:30:54.796Z,24.58
2023-03-05T03:31:24.799Z,24.57
2023-03-05T03:31:54.932Z,24.58
2023-03-05T03:32:25.041Z,24.58
2023-03-05T03:32:55.022Z,24.58
2023-03-05T03:33:25.023Z,24.57
2023-03-05T03:33:55.022Z,24.57
2023-03-05T03:34:25.025Z,24.60
2023-03-05T03:34:55.140Z,24.57
2023-03-05T03:35:25.216Z,24.58
2023-03-05T03:35:55.321Z,24.57
2023-03-05T03:36:25.323Z,24.55
2023-03-05T03:36:55.314Z,24.58
2023-03-05T03:37:25.308Z,24.55
2023-03-05T03:37:55.306Z,24.55
2023-03-05T03:38:25.427Z,24.55
2023-03-05T03:38:55.541Z,24.58
2023-03-05T03:39:25.671Z,24.58
2023-03-05T03:39:55.775Z,24.57
2023-03-05T03:40:25.773Z,24.57
2023-03-05T03:40:55.795Z,24.58
2023-03-05T03:41:25.794Z,24.54
2023-03-05T03:41:55.892Z,24.58
2023-03-05T03:42:26.035Z,24.58
2023-03-05T03:42:56.006Z,24.58
2023-03-05T03:43:26.126Z,24.58
2023-03-05T03:43:56.200Z,24.58
2023-03-05T03:44:26.276Z,24.58
2023-03-05T03:44:56.362Z,24.57
2023-03-05T03:45:26.441Z,24.55
2023-03-05T03:45:56.604Z,24.58
2023-03-05T03:46:26.593Z,24.58
2023-03-05T03:46:56.588Z,24.55
2023-03-05T03:47:26.697Z,24.55
2023-03-05T03:47:56.751Z,24.54
2023-03-05T03:48:26.829Z,24.58
2023-03-05T03:48:56.928Z,24.58
2023-03-05T03:49:27.002Z,24.57
2023-03-05T03:49:57.084Z,24.55
2023-03-05T03:50:27.171Z,24.57
2023-03-05T03:50:57.247Z,24.57
2023-03-05T03:51:27.509Z,24.57
2023-03-05T03:51:57.436Z,24.57
2023-03-05T03:52:27.524Z,24.58
2023-03-05T03:52:57.603Z,24.57
2023-03-05T03:53:27.696Z,24.55
2023-03-05T03:53:57.816Z,24.58
2023-03-05T03:54:27.929Z,24.58
2023-03-05T03:54:57.929Z,24.57
2023-03-05T03:55:27.942Z,24.54
2023-03-05T03:55:57.933Z,24.57
2023-03-05T03:56:27.945Z,24.57
2023-03-05T03:56:58.077Z,24.57
2023-03-05T03:57:28.057Z,24.55
2023-03-05T03:57:58.179Z,24.55
2023-03-05T03:58:28.289Z,24.57
2023-03-05T03:58:58.409Z,24.57
2023-03-05T03:59:28.415Z,24.57
2023-03-05T03:59:58.521Z,24.55
2023-03-05T04:00:28.659Z,24.58
2023-03-05T04:00:58.690Z,24.55
2023-03-05T04:01:28.666Z,24.54
2023-03-05T04:01:58.663Z,24.55
2023-03-05T04:02:28.713Z,24.58
2023-03-05T04:02:58.713Z,24.55
2023-03-05T04:03:28.680Z,24.55
2023-03-05T04:03:58.782Z,24.58
2023-03-05T04:04:28.832Z,24.57
2023-03-05T04:04:58.855Z,24.55
2023-03-05T04:05:28.857Z,24.55
2023-03-05T04:05:58.868Z,24.55
2023-03-05T04:06:28.851Z,24.54
2023-03-05T04:06:58.860Z,24.55
2023-03-05T04:07:28.845Z,24.55
2023-03-05T04:07:58.968Z,24.58
2023-03-05T04:08:28.971Z,24.57
2023-03-05T04:08:58.963Z,24.57
2023-03-05T04:09:28.986Z,24.54
2023-03-05T04:09:58.986Z,24.55
2023-03-05T04:10:28.984Z,24.57
2023-03-05T04:10:58.978Z,24.55
2023-03-05T04:11:29.020Z,24.57
2023-03-05T04:11:59.132Z,24.57
2023-03-05T04:12:29.127Z,24.53
2023-03-05T04:12:59.152Z,24.57
2023-03-05T04:13:29.163Z,24.55
2023-03-05T04:13:59.190Z,24.53
2023-03-05T04:14:29.184Z,24.54
2023-03-05T04:14:59.181Z,24.55
2023-03-05T04:15:29.173Z,24.55
2023-03-05T04:15:59.255Z,24.55
2023-03-05T04:16:29.264Z,24.55
2023-03-05T04:16:59.260Z,24.54
2023-03-05T04:17:29.377Z,24.57
2023-03-05T04:17:59.701Z,24.55
2023-03-05T04:18:32.188Z,24.53
2023-03-05T04:18:59.567Z,24.54
2023-03-05T04:19:29.671Z,24.54
2023-03-05T04:19:59.675Z,24.54
2023-03-05T04:20:29.794Z,24.55
2023-03-05T04:20:59.912Z,24.54
2023-03-05T04:21:29.924Z,24.55
2023-03-05T04:21:59.903Z,24.55
2023-03-05T04:22:30.020Z,24.55
2023-03-05T04:23:00.022Z,24.54
2023-03-05T04:23:30.062Z,24.54
2023-03-05T04:24:00.042Z,24.54
2023-03-05T04:24:30.040Z,24.55
2023-03-05T04:25:00.158Z,24.54
2023-03-05T04:25:30.278Z,24.54
2023-03-05T04:26:00.269Z,24.54
2023-03-05T04:26:30.265Z,24.57
2023-03-05T04:27:00.379Z,24.55
2023-03-05T04:27:30.385Z,24.54
2023-03-05T04:28:00.501Z,24.54
2023-03-05T04:28:30.520Z,24.54
2023-03-05T04:29:00.611Z,24.54
2023-03-05T04:29:30.611Z,24.57
2023-03-05T04:30:00.722Z,24.55
2023-03-05T04:30:30.725Z,24.53
2023-03-05T04:31:00.787Z,24.55
2023-03-05T04:31:30.849Z,24.54
2023-03-05T04:32:00.863Z,24.53
2023-03-05T04:32:30.880Z,24.53
2023-03-05T04:33:00.855Z,24.51
2023-03-05T04:33:30.868Z,24.54
2023-03-05T04:34:00.874Z,24.55
2023-03-05T04:34:30.986Z,24.53
2023-03-05T04:35:00.976Z,24.53
2023-03-05T04:35:30.989Z,24.54
2023-03-05T04:36:01.137Z,24.53
2023-03-05T04:36:31.117Z,24.55
2023-03-05T04:37:01.111Z,24.54
2023-03-05T04:37:31.108Z,24.54
2023-03-05T04:38:01.114Z,24.53
2023-03-05T04:38:31.109Z,24.55
2023-03-05T04:39:01.103Z,24.53
2023-03-05T04:39:31.219Z,24.53
2023-03-05T04:40:01.216Z,24.51
2023-03-05T04:40:31.204Z,24.54
2023-03-05T04:41:01.215Z,24.53
2023-03-05T04:41:31.211Z,24.53
2023-03-05T04:42:01.334Z,24.53
2023-03-05T04:42:31.331Z,24.51
2023-03-05T04:43:01.460Z,24.51
2023-03-05T04:43:31.548Z,24.55
2023-03-05T04:44:01.632Z,24.53
2023-03-05T04:44:31.708Z,24.53
2023-03-05T04:45:01.801Z,24.53
2023-03-05T04:45:31.897Z,24.54
2023-03-05T04:46:01.983Z,24.54
2023-03-05T04:46:32.108Z,24.53
2023-03-05T04:47:02.178Z,24.53
2023-03-05T04:47:32.257Z,24.53
2023-03-05T04:48:02.351Z,24.51
2023-03-05T04:48:32.416Z,24.51
2023-03-05T04:49:02.526Z,24.53
2023-03-05T04:49:32.580Z,24.53
2023-03-05T04:50:02.669Z,24.53
2023-03-05T04:50:32.743Z,24.54
2023-03-05T04:51:02.836Z,24.53
2023-03-05T04:51:32.912Z,24.54
2023-03-05T04:52:02.991Z,24.51
2023-03-05T04:52:33.080Z,24.53
2023-03-05T04:53:03.154Z,24.51
2023-03-05T04:53:33.259Z,24.53
2023-03-05T04:54:03.381Z,24.51
2023-03-05T04:54:33.489Z,24.51
2023-03-05T04:55:03.494Z,24.54
2023-03-05T04:55:33.611Z,24.53
2023-03-05T04:56:03.616Z,24.51
2023-03-05T04:56:33.639Z,24.51
2023-03-05T04:57:03.636Z,24.54
2023-03-05T04:57:33.749Z,24.54
2023-03-05T04:58:03.759Z,24.50
2023-03-05T04:58:33.747Z,24.53
2023-03-05T04:59:03.871Z,24.53
2023-03-05T04:59:33.980Z,24.53
2023-03-05T05:00:03.982Z,24.50
2023-03-05T05:00:34.095Z,24.51
2023-03-05T05:01:04.116Z,24.53
2023-03-05T05:01:34.156Z,24.50
2023-03-05T05:02:04.244Z,24.53
2023-03-05T05:02:34.256Z,24.50
2023-03-05T05:03:04.318Z,24.51
2023-03-05T05:03:34.325Z,24.51
2023-03-05T05:04:04.331Z,24.51
2023-03-05T05:04:34.479Z,24.51
2023-03-05T05:05:04.470Z,24.51
2023-03-05T05:05:34.455Z,24.51
2023-03-05T05:06:04.464Z,24.50
2023-03-05T05:06:34.454Z,24.53
2023-03-05T05:07:04.576Z,24.50
2023-03-05T05:07:34.570Z,24.51
2023-03-05T05:08:04.686Z,24.51
2023-03-05T05:08:34.684Z,24.51
2023-03-05T05:09:04.798Z,24.51
2023-03-05T05:09:34.821Z,24.50
2023-03-05T05:10:04.800Z,24.50
2023-03-05T05:10:34.916Z,24.50
2023-03-05T05:11:04.924Z,24.50
2023-03-05T05:11:34.922Z,24.53
2023-03-05T05:12:04.918Z,24.50
2023-03-05T05:12:34.908Z,24.53
2023-03-05T05:13:05.035Z,24.51
2023-03-05T05:13:35.153Z,24.47
2023-03-05T05:14:05.274Z,24.48
2023-03-05T05:14:35.293Z,24.50
2023-03-05T05:15:05.401Z,24.50
2023-03-05T05:15:35.395Z,24.48
2023-03-05T05:16:05.425Z,24.50
2023-03-05T05:16:35.440Z,24.51
2023-03-05T05:17:05.434Z,24.50
2023-03-05T05:17:35.407Z,24.51
2023-03-05T05:18:05.526Z,24.50
2023-03-05T05:18:35.537Z,24.50
2023-03-05T05:19:05.548Z,24.51
2023-03-05T05:19:35.658Z,24.48
2023-03-05T05:20:05.564Z,24.51
2023-03-05T05:20:35.532Z,24.50
2023-03-05T05:21:05.656Z,24.50
2023-03-05T05:21:35.668Z,24.48
2023-03-05T05:22:05.779Z,24.48
2023-03-05T05:22:35.781Z,24.53
2023-03-05T05:23:05.775Z,24.50
2023-03-05T05:23:35.778Z,24.50
2023-03-05T05:24:05.775Z,24.50
2023-03-05T05:24:35.765Z,24.48
2023-03-05T05:25:05.767Z,24.53
2023-03-05T05:25:35.879Z,24.48
2023-03-05T05:26:06.039Z,24.50
2023-03-05T05:26:36.016Z,24.50
2023-03-05T05:27:06.136Z,24.48
2023-03-05T05:27:36.139Z,24.51
2023-03-05T05:28:06.158Z,24.47
2023-03-05T05:28:36.162Z,24.48
2023-03-05T05:29:06.271Z,24.50
2023-03-05T05:29:36.270Z,24.50
2023-03-05T05:30:06.387Z,24.51
2023-03-05T05:30:36.382Z,24.48
2023-03-05T05:31:06.593Z,24.50
2023-03-05T05:31:36.622Z,24.48
2023-03-05T05:32:06.643Z,24.50
2023-03-05T05:32:36.763Z,24.50
2023-03-05T05:33:06.698Z,24.48
2023-03-05T05:33:36.677Z,24.51
2023-03-05T05:34:06.792Z,24.47
2023-03-05T05:34:36.797Z,24.50
2023-03-05T05:35:06.816Z,24.47
2023-03-05T05:35:36.822Z,24.48
2023-03-05T05:36:06.818Z,24.50
2023-03-05T05:36:36.822Z,24.48
2023-03-05T05:37:06.815Z,24.51
2023-03-05T05:37:36.828Z,24.50
2023-03-05T05:38:06.928Z,24.48
2023-03-05T05:38:36.930Z,24.48
2023-03-05T05:39:07.049Z,24.48
2023-03-05T05:39:37.048Z,24.48
2023-03-05T05:40:07.164Z,24.51
2023-03-05T05:40:37.277Z,24.47
2023-03-05T05:41:07.401Z,24.48
2023-03-05T05:41:37.394Z,24.48
2023-03-05T05:42:07.403Z,24.48
2023-03-05T05:42:37.399Z,24.48
2023-03-05T05:43:07.517Z,24.50
2023-03-05T05:43:37.610Z,24.48
2023-03-05T05:44:07.696Z,24.48
2023-03-05T05:44:37.815Z,24.50
2023-03-05T05:45:07.908Z,24.48
2023-03-05T05:45:38.232Z,24.47
2023-03-05T05:46:08.163Z,24.48
2023-03-05T05:46:38.187Z,24.47
2023-03-05T05:47:08.172Z,24.48
2023-03-05T05:47:38.258Z,24.47
2023-03-05T05:48:08.341Z,24.50
2023-03-05T05:48:38.422Z,24.48
2023-03-05T05:49:08.502Z,24.46
2023-03-05T05:49:38.587Z,24.51
2023-03-05T05:50:08.675Z,24.47
2023-03-05T05:50:38.775Z,24.51
2023-03-05T05:51:08.846Z,24.46
2023-03-05T05:51:38.930Z,24.48
2023-03-05T05:52:09.015Z,24.47
2023-03-05T05:52:39.096Z,24.48
2023-03-05T05:53:09.175Z,24.47
2023-03-05T05:53:39.284Z,24.48
2023-03-05T05:54:09.283Z,24.48
2023-03-05T05:54:39.288Z,24.47
2023-03-05T05:55:09.286Z,24.48
2023-03-05T05:55:39.270Z,24.47
2023-03-05T05:56:09.414Z,24.47
2023-03-05T05:56:39.391Z,24.50
2023-03-05T05:57:09.388Z,24.48
2023-03-05T05:57:39.384Z,24.48
2023-03-05T05:58:09.390Z,24.47
2023-03-05T05:58:39.494Z,24.46
2023-03-05T05:59:09.488Z,24.47
2023-03-05T05:59:39.494Z,24.47
2023-03-05T06:00:09.481Z,24.47
2023-03-05T06:00:39.480Z,24.47
2023-03-05T06:01:09.606Z,24.48
2023-03-05T06:01:39.705Z,24.47
2023-03-05T06:02:09.718Z,24.48
2023-03-05T06:02:39.736Z,24.47
2023-03-05T06:03:09.785Z,24.48
2023-03-05T06:03:39.787Z,24.47
2023-03-05T06:04:09.931Z,24.48
2023-03-05T06:04:39.934Z,24.47
2023-03-05T06:05:09.911Z,24.47
2023-03-05T06:05:39.907Z,24.46
2023-03-05T06:06:10.052Z,24.47
2023-03-05T06:06:40.026Z,24.47
2023-03-05T06:07:10.146Z,24.48
2023-03-05T06:07:40.148Z,24.48
2023-03-05T06:08:10.152Z,24.47
2023-03-05T06:08:40.150Z,24.47
2023-03-05T06:09:10.272Z,24.47
2023-03-05T06:09:40.282Z,24.47
2023-03-05T06:10:10.415Z,24.46
2023-03-05T06:10:40.506Z,24.46
2023-03-05T06:11:10.503Z,24.47
2023-03-05T06:11:40.633Z,24.47
2023-03-05T06:12:10.621Z,24.48
2023-03-05T06:12:40.626Z,24.46
2023-03-05T06:13:10.633Z,24.46
2023-03-05T06:13:40.622Z,24.47
2023-03-05T06:14:10.739Z,24.47
2023-03-05T06:14:40.733Z,24.47
2023-03-05T06:15:10.859Z,24.47
2023-03-05T06:15:40.849Z,24.46
2023-03-05T06:16:11.082Z,24.47
2023-03-05T06:16:41.042Z,24.48
2023-03-05T06:17:12.859Z,24.46
2023-03-05T06:17:41.148Z,24.46
2023-03-05T06:18:11.143Z,24.46
2023-03-05T06:18:41.140Z,24.44
2023-03-05T06:19:11.273Z,24.46
2023-03-05T06:19:41.254Z,24.46
2023-03-05T06:20:11.371Z,24.46
2023-03-05T06:20:41.485Z,24.47
2023-03-05T06:21:11.607Z,24.47
2023-03-05T06:21:41.652Z,24.47
2023-03-05T06:22:11.610Z,24.47
2023-03-05T06:22:41.728Z,24.46
2023-03-05T06:23:11.725Z,24.46
2023-03-05T06:23:41.721Z,24.46
2023-03-05T06:24:11.717Z,24.46
2023-03-05T06:24:41.841Z,24.43
2023-03-05T06:25:11.988Z,24.47
2023-03-05T06:25:42.075Z,24.46
2023-03-05T06:26:12.094Z,24.44
2023-03-05T06:26:42.097Z,24.44
2023-03-05T06:27:12.220Z,24.47
2023-03-05T06:27:42.215Z,24.46